PHENX88 NZOH-NZWB
Flight info
| Callsign | PHENX88 |
|---|---|
| Flight time | N/A |
| Altitude | 16000 |
| Route | ESMUK V112 WN Q100 LUTKA |
| Aircraft | E737/M-SDE2E3FGHIRWXY/LB1 |
Departure
| Time | 2026-04-11 11:16 |
|---|---|
| Airport | RNZAF Base Ohakea (NZOH) |
Arrival
| Time | N/A |
|---|---|
| Airport | Woodbourne Airport (NZWB) |
| Time | Latitude | Longitude | Altitude | Speed | Heading |
|---|---|---|---|---|---|
| 2026-04-11 10:34 | -40.20058 | 175.37842 | 167 ft | 0 kts | 288° |
| 2026-04-11 11:13 | -40.20057 | 175.37840 | 167 ft | 1 kts | 288° |
| 2026-04-11 11:13 | -40.20057 | 175.37813 | 167 ft | 5 kts | 256° |
| 2026-04-11 11:14 | -40.20071 | 175.37743 | 166 ft | 10 kts | 260° |
| 2026-04-11 11:14 | -40.20052 | 175.37651 | 166 ft | 12 kts | 287° |
| 2026-04-11 11:14 | -40.20031 | 175.37544 | 164 ft | 12 kts | 270° |
| 2026-04-11 11:14 | -40.20086 | 175.37442 | 160 ft | 13 kts | 227° |
| 2026-04-11 11:15 | -40.20155 | 175.37350 | 156 ft | 12 kts | 221° |
| 2026-04-11 11:15 | -40.20240 | 175.37358 | 156 ft | 14 kts | 120° |
| 2026-04-11 11:15 | -40.20294 | 175.37547 | 160 ft | 54 kts | 110° |
| 2026-04-11 11:15 | -40.20525 | 175.38437 | 185 ft | 144 kts | 109° |
| 2026-04-11 11:16 | -40.20822 | 175.39625 | 1282 ft | 139 kts | 102° |
| 2026-04-11 11:16 | -40.20984 | 175.40817 | 2292 ft | 142 kts | 91° |
| 2026-04-11 11:16 | -40.21101 | 175.42149 | 3153 ft | 157 kts | 93° |
| 2026-04-11 11:16 | -40.21275 | 175.43582 | 4004 ft | 172 kts | 94° |
| 2026-04-11 11:17 | -40.21480 | 175.45158 | 4905 ft | 186 kts | 93° |
| 2026-04-11 11:17 | -40.21699 | 175.46886 | 5807 ft | 202 kts | 92° |
| 2026-04-11 11:17 | -40.21930 | 175.48708 | 6726 ft | 216 kts | 93° |
| 2026-04-11 11:17 | -40.22184 | 175.50674 | 7697 ft | 228 kts | 94° |
| 2026-04-11 11:18 | -40.22687 | 175.52667 | 8854 ft | 242 kts | 112° |
| 2026-04-11 11:18 | -40.23829 | 175.54309 | 9844 ft | 265 kts | 138° |
| 2026-04-11 11:18 | -40.25628 | 175.55356 | 10054 ft | 302 kts | 163° |
| 2026-04-11 11:18 | -40.27782 | 175.55710 | 10010 ft | 317 kts | 174° |
| 2026-04-11 11:19 | -40.30002 | 175.55820 | 10004 ft | 320 kts | 175° |
| 2026-04-11 11:19 | -40.32236 | 175.55908 | 10007 ft | 320 kts | 175° |
| 2026-04-11 11:19 | -40.34456 | 175.56030 | 9994 ft | 320 kts | 174° |
| 2026-04-11 11:19 | -40.36683 | 175.55998 | 9999 ft | 322 kts | 184° |
| 2026-04-11 11:20 | -40.38866 | 175.55356 | 9999 ft | 324 kts | 199° |
| 2026-04-11 11:20 | -40.40949 | 175.54222 | 10000 ft | 325 kts | 204° |
| 2026-04-11 11:20 | -40.43091 | 175.52991 | 10005 ft | 344 kts | 203° |
| 2026-04-11 11:20 | -40.45341 | 175.51717 | 10004 ft | 361 kts | 203° |
| 2026-04-11 11:21 | -40.47702 | 175.50380 | 10004 ft | 376 kts | 203° |
| 2026-04-11 11:21 | -40.50129 | 175.48996 | 10010 ft | 381 kts | 205° |
| 2026-04-11 11:21 | -40.52472 | 175.47575 | 9989 ft | 359 kts | 205° |
| 2026-04-11 11:21 | -40.54666 | 175.46222 | 9996 ft | 338 kts | 205° |
| 2026-04-11 11:22 | -40.56731 | 175.44966 | 10003 ft | 323 kts | 205° |
| 2026-04-11 11:22 | -40.58786 | 175.43742 | 10008 ft | 323 kts | 205° |
| 2026-04-11 11:22 | -40.60850 | 175.42537 | 10004 ft | 324 kts | 204° |
| 2026-04-11 11:22 | -40.62909 | 175.41350 | 10002 ft | 323 kts | 204° |
| 2026-04-11 11:23 | -40.64981 | 175.40164 | 10006 ft | 324 kts | 204° |
| 2026-04-11 11:23 | -40.67038 | 175.38988 | 10013 ft | 321 kts | 204° |
| 2026-04-11 11:23 | -40.69127 | 175.37906 | 10016 ft | 323 kts | 197° |
| 2026-04-11 11:23 | -40.71372 | 175.37357 | 10160 ft | 347 kts | 183° |
| 2026-04-11 11:24 | -40.73849 | 175.37245 | 11000 ft | 363 kts | 178° |
| 2026-04-11 11:24 | -40.76414 | 175.37254 | 11831 ft | 378 kts | 178° |
| 2026-04-11 11:24 | -40.79037 | 175.36908 | 12828 ft | 388 kts | 193° |
| 2026-04-11 11:24 | -40.81514 | 175.35454 | 13854 ft | 395 kts | 212° |
| 2026-04-11 11:25 | -40.83734 | 175.33327 | 14843 ft | 401 kts | 220° |
| 2026-04-11 11:25 | -40.85857 | 175.30962 | 15717 ft | 406 kts | 221° |
| 2026-04-11 11:25 | -40.87994 | 175.28525 | 15925 ft | 411 kts | 221° |
| 2026-04-11 11:25 | -40.90197 | 175.26079 | 15940 ft | 410 kts | 220° |
| 2026-04-11 11:26 | -40.92375 | 175.23740 | 15959 ft | 407 kts | 220° |
| 2026-04-11 11:26 | -40.94603 | 175.21407 | 15981 ft | 408 kts | 219° |
| 2026-04-11 11:26 | -40.96856 | 175.19092 | 15980 ft | 411 kts | 218° |
| 2026-04-11 11:26 | -40.99107 | 175.16809 | 15977 ft | 408 kts | 218° |
| 2026-04-11 11:27 | -41.01361 | 175.14533 | 15982 ft | 406 kts | 218° |
| 2026-04-11 11:27 | -41.03602 | 175.12273 | 15973 ft | 407 kts | 218° |
| 2026-04-11 11:27 | -41.05852 | 175.10005 | 15967 ft | 409 kts | 218° |
| 2026-04-11 11:27 | -41.08090 | 175.07745 | 15963 ft | 406 kts | 218° |
| 2026-04-11 11:28 | -41.10365 | 175.05444 | 15950 ft | 408 kts | 218° |
| 2026-04-11 11:28 | -41.12641 | 175.03137 | 15912 ft | 414 kts | 218° |
| 2026-04-11 11:28 | -41.14917 | 175.00829 | 15641 ft | 415 kts | 218° |
| 2026-04-11 11:28 | -41.17184 | 174.98529 | 15184 ft | 405 kts | 218° |
| 2026-04-11 11:29 | -41.21613 | 174.94031 | 13947 ft | 403 kts | 219° |
| 2026-04-11 11:29 | -41.23828 | 174.91779 | 13312 ft | 399 kts | 219° |
| 2026-04-11 11:29 | -41.26017 | 174.89552 | 12718 ft | 393 kts | 219° |
| 2026-04-11 11:30 | -41.28175 | 174.87354 | 12110 ft | 387 kts | 219° |
| 2026-04-11 11:30 | -41.30278 | 174.85210 | 11490 ft | 383 kts | 219° |
| 2026-04-11 11:30 | -41.32314 | 174.83005 | 10924 ft | 375 kts | 225° |
| 2026-04-11 11:30 | -41.33997 | 174.80447 | 10615 ft | 356 kts | 241° |
| 2026-04-11 11:31 | -41.35009 | 174.77589 | 10502 ft | 331 kts | 255° |
| 2026-04-11 11:31 | -41.35699 | 174.74764 | 10374 ft | 314 kts | 258° |
| 2026-04-11 11:31 | -41.36293 | 174.72049 | 10241 ft | 300 kts | 259° |
| 2026-04-11 11:31 | -41.36882 | 174.69403 | 9974 ft | 294 kts | 258° |
| 2026-04-11 11:32 | -41.37484 | 174.66827 | 9567 ft | 293 kts | 257° |
| 2026-04-11 11:32 | -41.38106 | 174.64276 | 9193 ft | 290 kts | 256° |
| 2026-04-11 11:32 | -41.38742 | 174.61736 | 8840 ft | 288 kts | 256° |
| 2026-04-11 11:32 | -41.39375 | 174.59224 | 8470 ft | 285 kts | 256° |
| 2026-04-11 11:33 | -41.39997 | 174.56746 | 8104 ft | 283 kts | 257° |
| 2026-04-11 11:33 | -41.40615 | 174.54274 | 7748 ft | 279 kts | 257° |
| 2026-04-11 11:33 | -41.41222 | 174.51842 | 7401 ft | 276 kts | 257° |
| 2026-04-11 11:33 | -41.41820 | 174.49443 | 7061 ft | 273 kts | 257° |
| 2026-04-11 11:34 | -41.42419 | 174.47044 | 6713 ft | 270 kts | 257° |
| 2026-04-11 11:34 | -41.43003 | 174.44704 | 6388 ft | 268 kts | 257° |
| 2026-04-11 11:34 | -41.43595 | 174.42317 | 6039 ft | 273 kts | 257° |
| 2026-04-11 11:34 | -41.44187 | 174.39931 | 5698 ft | 272 kts | 256° |
| 2026-04-11 11:35 | -41.44781 | 174.37550 | 5356 ft | 268 kts | 256° |
| 2026-04-11 11:35 | -41.45362 | 174.35219 | 5015 ft | 265 kts | 256° |
| 2026-04-11 11:35 | -41.45941 | 174.32886 | 4741 ft | 259 kts | 256° |
| 2026-04-11 11:35 | -41.46492 | 174.30682 | 4654 ft | 247 kts | 257° |
| 2026-04-11 11:36 | -41.47030 | 174.28513 | 4597 ft | 244 kts | 257° |
| 2026-04-11 11:36 | -41.47555 | 174.26372 | 4517 ft | 241 kts | 257° |
| 2026-04-11 11:36 | -41.48071 | 174.24287 | 4449 ft | 230 kts | 257° |
| 2026-04-11 11:36 | -41.48558 | 174.22327 | 4381 ft | 221 kts | 257° |
| 2026-04-11 11:37 | -41.49038 | 174.20383 | 4308 ft | 216 kts | 257° |
| 2026-04-11 11:37 | -41.49391 | 174.18491 | 4190 ft | 209 kts | 269° |
| 2026-04-11 11:37 | -41.49520 | 174.16562 | 3992 ft | 209 kts | 271° |
| 2026-04-11 11:37 | -41.49648 | 174.14603 | 3760 ft | 211 kts | 270° |
| 2026-04-11 11:38 | -41.49795 | 174.12758 | 3534 ft | 193 kts | 270° |
| 2026-04-11 11:38 | -41.49927 | 174.11041 | 3322 ft | 181 kts | 271° |
| 2026-04-11 11:38 | -41.50050 | 174.09442 | 3190 ft | 165 kts | 271° |
| 2026-04-11 11:38 | -41.50165 | 174.07989 | 3062 ft | 148 kts | 272° |
| 2026-04-11 11:39 | -41.50265 | 174.06679 | 2858 ft | 139 kts | 273° |
| 2026-04-11 11:39 | -41.50359 | 174.05435 | 2658 ft | 131 kts | 272° |
| 2026-04-11 11:39 | -41.50442 | 174.04306 | 2571 ft | 114 kts | 275° |
| 2026-04-11 11:39 | -41.50349 | 174.03270 | 1080 ft | 200 kts | 325° |
| 2026-04-11 11:40 | -41.50311 | 174.03087 | 95 ft | 221 kts | 232° |